Terminal Aerodrome Forecast
Issued by NWS

Home | Current Version | Previous Version | Text Only | Print | Product List | Glossary On
Versions: 1 2 3 4 5 6 7 8 9 10 11 12 13
075
FTAK31 PAJN 281900 AAA
TAFAKT
TAF AMD
PAKT 281900Z 2819/2918 32006KT P6SM SCT200
     FM290600 14005KT P6SM SCT004
     FM290900 14006KT 6SM BCFG SCT004
     FM291200 14006KT 5SM -DZ BR OVC004
      AMD LTD TO CLD VIS AND WIND 2906/2915=

USA.gov is the U.S. government's official web portal to all federal, state and local government web resources and services.